Kasserine, Tunisia
Current Conditions -  °F | °C
As of 4:00 PM on Wednesday 26 Nov 2014 (Local Time) from DABS Reporting Station
Scattered Clouds Scattered Clouds  
Wind Chill: 68°   Ceiling: Unl
Heat Index: 68°   Visibility: 6mi
Dew Point: 43°   Wind: 0mph
Humidity: 40%   Direction: NA
Pressure: 29.97"   Gusts: NA
Location:  35.17°N, 8.83°E
Report Text: DABS 261500Z 00000KT 9999 SCT040 SCT100 20/06 Q1015
Loading
Personal Weather Stations






























Interactive Weather Map New forecast layout! Learn more

10-Day Weather Forecast

Advertisements
Track Severe Weather on mobile